createdAt,value
2023-04-11T00:01:51.225Z,11.80
2023-04-11T00:04:21.125Z,11.90
2023-04-11T00:06:49.261Z,12.10
2023-04-11T00:09:17.838Z,12.20
2023-04-11T00:11:46.239Z,12.30
2023-04-11T00:14:15.239Z,12.20
2023-04-11T00:16:43.523Z,12.10
2023-04-11T00:19:11.444Z,12.10
2023-04-11T00:21:40.918Z,12.10
2023-04-11T00:24:09.203Z,12.00
2023-04-11T00:26:37.148Z,12.00
2023-04-11T00:29:05.234Z,12.10
2023-04-11T00:31:33.719Z,12.00
2023-04-11T00:34:01.796Z,11.90
2023-04-11T00:36:29.861Z,11.90
2023-04-11T00:39:01.174Z,12.00
2023-04-11T00:41:29.325Z,12.00
2023-04-11T00:43:57.807Z,12.00
2023-04-11T00:46:27.927Z,12.10
2023-04-11T00:48:56.429Z,12.10
2023-04-11T00:51:24.841Z,12.10
2023-04-11T00:53:52.773Z,12.20
2023-04-11T00:56:23.218Z,12.20
2023-04-11T00:58:51.237Z,12.20
2023-04-11T01:01:20.160Z,12.30
2023-04-11T01:03:48.346Z,12.30
2023-04-11T01:06:19.146Z,12.30
2023-04-11T01:08:48.726Z,12.30
2023-04-11T01:11:20.278Z,12.30
2023-04-11T01:13:51.088Z,12.40
2023-04-11T01:16:21.248Z,12.40
2023-04-11T01:18:49.798Z,12.40
2023-04-11T01:21:20.462Z,12.50
2023-04-11T01:23:52.890Z,12.50
2023-04-11T01:26:21.130Z,12.50
2023-04-11T01:28:49.051Z,12.60
2023-04-11T01:31:17.302Z,12.60
2023-04-11T01:33:45.423Z,12.70
2023-04-11T01:36:13.669Z,12.70
2023-04-11T01:38:41.753Z,12.70
2023-04-11T01:41:12.390Z,12.70
2023-04-11T01:43:40.669Z,12.70
2023-04-11T01:46:09.701Z,12.70
2023-04-11T01:48:38.935Z,12.80
2023-04-11T01:51:08.477Z,12.90
2023-04-11T01:53:36.396Z,12.90
2023-04-11T01:56:04.674Z,12.80
2023-04-11T01:58:34.090Z,12.80
2023-04-11T02:01:02.049Z,12.70
2023-04-11T02:03:30.291Z,12.70
2023-04-11T02:05:58.792Z,12.70
2023-04-11T02:08:26.786Z,12.70
2023-04-11T02:10:54.905Z,12.80
2023-04-11T02:13:22.930Z,12.90
2023-04-11T02:15:52.343Z,12.90
2023-04-11T02:18:20.540Z,13.00
2023-04-11T02:20:50.111Z,13.00
2023-04-11T02:23:18.334Z,13.10
2023-04-11T02:25:46.206Z,13.10
2023-04-11T02:28:14.114Z,13.00
2023-04-11T02:30:42.233Z,13.20
2023-04-11T02:33:11.952Z,13.30
2023-04-11T02:35:39.981Z,13.30
2023-04-11T02:38:08.073Z,13.30
2023-04-11T02:40:35.992Z,13.30
2023-04-11T02:43:03.904Z,13.40
2023-04-11T02:45:32.176Z,13.40
2023-04-11T02:48:00.153Z,13.50
2023-04-11T02:50:29.712Z,13.50
2023-04-11T02:52:58.145Z,13.50
2023-04-11T02:55:27.009Z,13.50
2023-04-11T02:57:54.872Z,13.50
2023-04-11T03:00:23.152Z,13.50
2023-04-11T03:02:51.127Z,13.50
2023-04-11T03:05:19.226Z,13.60
2023-04-11T03:07:48.464Z,13.60
2023-04-11T03:10:16.458Z,13.60
2023-04-11T03:12:44.652Z,13.60
2023-04-11T03:15:15.573Z,13.60
2023-04-11T03:17:43.876Z,13.70
2023-04-11T03:20:13.784Z,13.70
2023-04-11T03:22:41.988Z,13.70
2023-04-11T03:25:11.543Z,13.80
2023-04-11T03:27:39.611Z,13.80
2023-04-11T03:30:09.117Z,13.80
2023-04-11T03:32:37.238Z,13.80
2023-04-11T03:35:05.625Z,13.80
2023-04-11T03:37:33.551Z,13.90
2023-04-11T03:40:01.741Z,13.80
2023-04-11T03:42:31.010Z,13.80
2023-04-11T03:44:59.051Z,13.90
2023-04-11T03:47:26.998Z,13.80
2023-04-11T03:49:55.079Z,14.00
2023-04-11T03:52:23.074Z,13.90
2023-04-11T03:54:51.124Z,13.80
2023-04-11T03:57:19.085Z,13.90
2023-04-11T03:59:48.526Z,13.80
2023-04-11T04:02:16.620Z,13.80
2023-04-11T04:04:47.062Z,13.80
2023-04-11T04:07:15.345Z,13.80
2023-04-11T04:09:43.257Z,13.80
2023-04-11T04:12:11.554Z,13.90
2023-04-11T04:14:39.426Z,13.80
2023-04-11T04:17:08.960Z,13.90
2023-04-11T04:19:36.994Z,13.90
2023-04-11T04:22:05.906Z,13.90
2023-04-11T04:24:38.187Z,13.80
2023-04-11T04:27:08.922Z,13.80
2023-04-11T04:29:39.799Z,13.80
2023-04-11T04:32:11.280Z,13.80
2023-04-11T04:34:46.948Z,13.80
2023-04-11T04:37:21.722Z,13.90
2023-04-11T04:39:54.121Z,13.70
2023-04-11T04:42:26.478Z,13.70
2023-04-11T04:44:55.816Z,13.80
2023-04-11T04:47:29.960Z,13.80
2023-04-11T04:49:58.456Z,13.80
2023-04-11T04:52:27.730Z,13.80
2023-04-11T04:54:58.231Z,13.80
2023-04-11T04:57:27.081Z,13.80
2023-04-11T04:59:55.401Z,13.70
2023-04-11T05:02:25.610Z,13.70
2023-04-11T05:04:57.990Z,13.70
2023-04-11T05:07:26.583Z,13.80
2023-04-11T05:09:54.536Z,13.70
2023-04-11T05:12:26.839Z,13.70
2023-04-11T05:14:56.578Z,13.80
2023-04-11T05:17:25.600Z,13.80
2023-04-11T05:19:55.174Z,13.80
2023-04-11T05:22:23.127Z,13.80
2023-04-11T05:24:51.298Z,13.70
2023-04-11T05:27:19.353Z,13.70
2023-04-11T05:29:47.783Z,13.50
2023-04-11T05:32:16.044Z,13.40
2023-04-11T05:34:58.101Z,13.40
2023-04-11T05:37:26.968Z,13.40
2023-04-11T05:39:56.293Z,13.40
2023-04-11T05:42:24.543Z,13.40
2023-04-11T05:44:52.632Z,13.50
2023-04-11T05:47:20.769Z,13.40
2023-04-11T05:49:49.032Z,13.40
2023-04-11T05:52:18.316Z,13.50
2023-04-11T05:54:46.531Z,13.50
2023-04-11T05:57:14.432Z,13.40
2023-04-11T05:59:42.306Z,13.40
2023-04-11T06:02:10.995Z,13.20
2023-04-11T06:04:39.430Z,13.30
2023-04-11T06:07:08.615Z,13.30
2023-04-11T06:09:39.213Z,13.20
2023-04-11T06:12:07.702Z,13.10
2023-04-11T06:14:35.986Z,13.20
2023-04-11T06:17:05.095Z,13.20
2023-04-11T06:19:33.235Z,13.30
2023-04-11T06:22:01.145Z,13.20
2023-04-11T06:24:41.033Z,13.20
2023-04-11T06:27:10.575Z,13.20
2023-04-11T06:29:38.780Z,13.20
2023-04-11T06:32:08.777Z,13.20
2023-04-11T06:34:36.641Z,13.20
2023-04-11T06:37:04.667Z,13.20
2023-04-11T06:39:32.527Z,13.10
2023-04-11T06:42:02.291Z,13.10
2023-04-11T06:44:30.510Z,13.10
2023-04-11T06:46:59.492Z,13.10
2023-04-11T06:49:28.316Z,13.00
2023-04-11T06:51:56.639Z,12.90
2023-04-11T06:54:24.586Z,12.90
2023-04-11T06:56:52.662Z,12.80
2023-04-11T06:59:22.368Z,12.70
2023-04-11T07:01:51.329Z,12.70
2023-04-11T07:04:19.612Z,12.70
2023-04-11T07:06:47.902Z,12.70
2023-04-11T07:09:16.012Z,12.70
2023-04-11T07:11:44.626Z,12.50
2023-04-11T07:14:12.561Z,12.60
2023-04-11T07:16:42.166Z,12.50
2023-04-11T07:19:10.059Z,12.30
2023-04-11T07:21:38.396Z,12.30
2023-04-11T07:24:06.986Z,12.20
2023-04-11T07:26:38.660Z,12.10
2023-04-11T07:29:09.076Z,12.10
2023-04-11T07:31:39.317Z,12.00
2023-04-11T07:34:08.685Z,11.90
2023-04-11T07:36:36.945Z,11.80
2023-04-11T07:39:09.058Z,11.70
2023-04-11T07:41:37.742Z,11.70
2023-04-11T07:44:07.634Z,11.60
2023-04-11T07:46:35.722Z,11.60
2023-04-11T07:49:03.765Z,11.60
2023-04-11T07:51:33.089Z,11.40
2023-04-11T07:54:01.200Z,11.40
2023-04-11T07:56:29.221Z,11.20
2023-04-11T07:58:58.634Z,11.10
2023-04-11T08:01:27.403Z,10.90
2023-04-11T08:03:58.280Z,10.90
2023-04-11T08:06:26.838Z,10.80
2023-04-11T08:08:56.200Z,10.80
2023-04-11T08:11:24.143Z,10.90
2023-04-11T08:13:52.195Z,10.80
2023-04-11T08:16:20.300Z,10.90
2023-04-11T08:18:48.343Z,10.60
2023-04-11T08:21:16.378Z,10.40
2023-04-11T08:23:44.969Z,10.20
2023-04-11T08:26:14.546Z,10.10
2023-04-11T08:28:43.467Z,10.00
2023-04-11T08:31:13.186Z,10.00
2023-04-11T08:33:42.045Z,10.10
2023-04-11T08:36:11.268Z,10.20
2023-04-11T08:38:40.398Z,10.20
2023-04-11T08:41:08.660Z,10.40
2023-04-11T08:43:40.223Z,10.50
2023-04-11T08:46:09.274Z,10.70
2023-04-11T08:48:37.401Z,11.10
2023-04-11T08:51:05.506Z,11.30
2023-04-11T08:53:38.724Z,11.30
2023-04-11T08:56:07.057Z,11.50
2023-04-11T08:58:35.002Z,11.60
2023-04-11T09:01:26.339Z,11.70
2023-04-11T09:03:54.552Z,11.80
2023-04-11T09:06:22.938Z,11.90
2023-04-11T09:08:51.036Z,12.00
2023-04-11T09:11:19.498Z,12.20
2023-04-11T09:13:48.672Z,12.30
2023-04-11T09:16:18.058Z,12.20
2023-04-11T09:18:53.814Z,11.90
2023-04-11T09:21:21.953Z,11.80
2023-04-11T09:23:49.891Z,11.70
2023-04-11T09:26:27.779Z,11.90
2023-04-11T09:28:55.981Z,11.90
2023-04-11T09:31:41.502Z,12.10
2023-04-11T09:34:09.803Z,12.30
2023-04-11T09:36:38.362Z,12.30
2023-04-11T09:39:18.171Z,12.20
2023-04-11T09:41:46.496Z,12.10
2023-04-11T09:44:16.632Z,12.00
2023-04-11T09:46:59.323Z,11.80
2023-04-11T09:49:27.971Z,11.80
2023-04-11T09:51:58.658Z,11.70
2023-04-11T09:54:28.466Z,11.70
2023-04-11T09:56:58.185Z,11.70
2023-04-11T09:59:28.021Z,11.80
2023-04-11T10:01:57.763Z,11.80
2023-04-11T10:04:28.193Z,11.70
2023-04-11T10:07:14.482Z,11.70
2023-04-11T10:09:44.214Z,11.90
2023-04-11T10:12:12.512Z,11.90
2023-04-11T10:14:44.587Z,12.00
2023-04-11T10:17:20.076Z,12.00
2023-04-11T10:19:56.450Z,12.10
2023-04-11T10:22:59.692Z,12.10
2023-04-11T10:25:28.056Z,12.10
2023-04-11T10:28:00.743Z,12.10
2023-04-11T10:31:00.559Z,12.10
2023-04-11T10:33:28.708Z,12.20
2023-04-11T10:36:03.936Z,12.20
2023-04-11T10:38:48.426Z,12.10
2023-04-11T10:41:18.593Z,12.20
2023-04-11T10:43:47.428Z,12.10
2023-04-11T10:46:20.502Z,12.10
2023-04-11T10:48:59.543Z,12.20
2023-04-11T10:51:29.831Z,12.60
2023-04-11T10:53:59.872Z,12.80
2023-04-11T10:56:55.902Z,13.00
2023-04-11T10:59:57.422Z,13.10
2023-04-11T11:02:37.927Z,13.00
2023-04-11T11:05:23.670Z,12.80
2023-04-11T11:07:55.122Z,13.00
2023-04-11T11:10:43.270Z,13.10
2023-04-11T11:13:11.347Z,13.00
2023-04-11T11:15:39.792Z,13.30
2023-04-11T11:18:09.948Z,13.70
2023-04-11T11:20:38.662Z,14.10
2023-04-11T11:23:10.028Z,14.50
2023-04-11T11:25:38.223Z,14.60
2023-04-11T11:28:08.469Z,14.70
2023-04-11T11:30:37.948Z,14.80
2023-04-11T11:33:19.254Z,15.00
2023-04-11T11:35:53.106Z,14.90
2023-04-11T11:38:26.236Z,14.80
2023-04-11T11:40:54.949Z,14.40
2023-04-11T11:43:23.139Z,14.30
2023-04-11T11:46:09.619Z,14.40
2023-04-11T11:48:38.097Z,14.60
2023-04-11T11:51:07.122Z,14.50
2023-04-11T11:53:36.931Z,14.50
2023-04-11T11:56:16.199Z,14.30
2023-04-11T11:58:45.499Z,14.30
2023-04-11T12:01:15.750Z,14.50
2023-04-11T12:03:44.304Z,14.60
2023-04-11T12:06:13.718Z,14.80
2023-04-11T12:08:50.064Z,14.90
2023-04-11T12:11:18.705Z,14.90
2023-04-11T12:13:46.760Z,15.00
2023-04-11T12:16:16.109Z,15.20
2023-04-11T12:18:45.313Z,15.20
2023-04-11T12:21:13.408Z,15.30
2023-04-11T12:23:42.645Z,15.40
2023-04-11T12:26:10.788Z,15.60
2023-04-11T12:28:38.850Z,15.80
2023-04-11T12:31:07.099Z,16.10
2023-04-11T12:33:35.362Z,16.10
2023-04-11T12:36:03.695Z,16.00
2023-04-11T12:38:31.842Z,16.00
2023-04-11T12:41:29.608Z,15.90
2023-04-11T12:43:49.583Z,15.80
2023-04-11T12:46:18.688Z,15.80
2023-04-11T12:48:46.651Z,15.70
2023-04-11T12:51:14.732Z,15.70
2023-04-11T12:53:42.689Z,15.80
2023-04-11T12:56:11.952Z,15.80
2023-04-11T12:58:40.013Z,15.90
2023-04-11T13:01:08.821Z,15.80
2023-04-11T13:03:38.431Z,15.70
2023-04-11T13:06:07.031Z,15.50
2023-04-11T13:08:35.845Z,15.30
2023-04-11T13:11:03.780Z,15.10
2023-04-11T13:13:33.136Z,15.30
2023-04-11T13:16:01.076Z,15.30
2023-04-11T13:18:29.327Z,15.30
2023-04-11T13:20:57.349Z,15.20
2023-04-11T13:23:25.306Z,15.20
2023-04-11T13:25:53.399Z,15.20
2023-04-11T13:28:21.752Z,15.20
2023-04-11T13:30:51.016Z,15.30
2023-04-11T13:33:19.195Z,15.00
2023-04-11T13:35:47.287Z,14.80
2023-04-11T13:38:15.184Z,14.80
2023-04-11T13:40:43.225Z,14.90
2023-04-11T13:43:11.110Z,14.80
2023-04-11T13:45:39.378Z,14.70
2023-04-11T13:48:08.736Z,14.80
2023-04-11T13:50:36.760Z,14.90
2023-04-11T13:53:04.945Z,15.00
2023-04-11T13:55:32.813Z,15.10
2023-04-11T13:58:00.762Z,15.10
2023-04-11T14:00:28.854Z,15.00
2023-04-11T14:02:57.317Z,15.00
2023-04-11T14:05:27.179Z,15.00
2023-04-11T14:07:55.344Z,14.90
2023-04-11T14:10:23.427Z,14.90
2023-04-11T14:12:51.726Z,15.00
2023-04-11T14:15:20.517Z,15.00
2023-04-11T14:17:49.843Z,15.10
2023-04-11T14:20:17.892Z,15.00
2023-04-11T14:22:47.230Z,15.20
2023-04-11T14:25:15.821Z,15.10
2023-04-11T14:27:44.220Z,15.10
2023-04-11T14:30:13.807Z,15.00
2023-04-11T14:32:42.099Z,14.80
2023-04-11T14:35:10.637Z,14.80
2023-04-11T14:37:38.529Z,14.60
2023-04-11T14:40:11.084Z,14.70
2023-04-11T14:42:39.784Z,14.60
2023-04-11T14:45:08.760Z,14.50
2023-04-11T14:47:37.331Z,14.40
2023-04-11T14:50:05.730Z,14.30
2023-04-11T14:52:33.893Z,14.20
2023-04-11T14:55:01.839Z,14.10
2023-04-11T14:57:45.815Z,14.10
2023-04-11T15:00:19.081Z,14.10
2023-04-11T15:02:48.226Z,14.00
2023-04-11T15:05:17.915Z,14.00
2023-04-11T15:07:47.724Z,14.00
2023-04-11T15:10:17.702Z,14.00
2023-04-11T15:12:47.488Z,14.00
2023-04-11T15:15:16.228Z,14.00
2023-04-11T15:17:46.859Z,14.10
2023-04-11T15:20:16.630Z,14.10
2023-04-11T15:22:46.631Z,14.10
2023-04-11T15:25:16.812Z,14.20
2023-04-11T15:27:46.356Z,14.10
2023-04-11T15:30:14.361Z,14.10
2023-04-11T15:32:43.619Z,14.10
2023-04-11T15:35:12.452Z,14.20
2023-04-11T15:37:41.049Z,14.10
2023-04-11T15:40:11.948Z,14.30
2023-04-11T15:42:40.409Z,14.20
2023-04-11T15:45:10.588Z,14.00
2023-04-11T15:47:38.534Z,13.90
2023-04-11T15:50:07.581Z,13.70
2023-04-11T15:52:35.781Z,13.70
2023-04-11T15:55:03.673Z,13.80
2023-04-11T15:57:31.851Z,13.70
2023-04-11T16:00:00.158Z,13.80
2023-04-11T16:02:29.864Z,13.80
2023-04-11T16:04:58.653Z,13.70
2023-04-11T16:07:26.832Z,13.80
2023-04-11T16:09:55.339Z,13.80
2023-04-11T16:12:23.353Z,13.70
2023-04-11T16:14:51.412Z,13.60
2023-04-11T16:17:20.570Z,13.30
2023-04-11T16:19:52.474Z,13.20
2023-04-11T16:22:21.509Z,13.00
2023-04-11T16:24:49.643Z,12.90
2023-04-11T16:27:18.804Z,12.80
2023-04-11T16:29:46.889Z,12.60
2023-04-11T16:32:14.832Z,12.40
2023-04-11T16:34:42.850Z,12.20
2023-04-11T16:37:12.102Z,12.10
2023-04-11T16:39:40.108Z,12.00
2023-04-11T16:42:08.530Z,11.90
2023-04-11T16:44:36.700Z,11.90
2023-04-11T16:47:04.796Z,11.80
2023-04-11T16:49:33.009Z,11.80
2023-04-11T16:52:00.969Z,11.80
2023-04-11T16:54:30.508Z,11.70
2023-04-11T16:56:58.421Z,11.70
2023-04-11T16:59:26.790Z,11.60
2023-04-11T17:01:54.981Z,11.60
2023-04-11T17:04:23.201Z,11.70
2023-04-11T17:06:51.154Z,11.60
2023-04-11T17:09:19.292Z,11.60
2023-04-11T17:11:48.586Z,11.50
2023-04-11T17:14:16.738Z,11.60
2023-04-11T17:16:46.075Z,11.70
2023-04-11T17:19:14.166Z,11.70
2023-04-11T17:21:42.490Z,11.70
2023-04-11T17:24:10.384Z,11.50
2023-04-11T17:26:38.494Z,11.50
2023-04-11T17:29:10.134Z,11.40
2023-04-11T17:31:38.692Z,11.20
2023-04-11T17:34:06.637Z,11.20
2023-04-11T17:36:37.456Z,11.10
2023-04-11T17:39:05.598Z,11.00
2023-04-11T17:41:33.793Z,11.00
2023-04-11T17:44:01.898Z,10.90
2023-04-11T17:46:31.414Z,10.90
2023-04-11T17:48:59.362Z,10.90
2023-04-11T17:51:29.265Z,10.80
2023-04-11T17:53:57.531Z,10.90
2023-04-11T17:56:25.770Z,10.80
2023-04-11T17:58:53.671Z,10.70
2023-04-11T18:01:21.599Z,10.70
2023-04-11T18:03:51.180Z,10.70
2023-04-11T18:06:19.445Z,10.70
2023-04-11T18:08:51.426Z,10.70
2023-04-11T18:11:21.099Z,10.70
2023-04-11T18:13:50.534Z,10.60
2023-04-11T18:16:18.791Z,10.50
2023-04-11T18:18:48.229Z,10.50
2023-04-11T18:21:17.641Z,10.50
2023-04-11T18:23:45.923Z,10.30
2023-04-11T18:26:14.215Z,10.30
2023-04-11T18:28:42.075Z,10.30
2023-04-11T18:31:11.723Z,10.20
2023-04-11T18:33:42.423Z,10.30
2023-04-11T18:36:29.497Z,10.30
2023-04-11T18:38:58.284Z,10.10
2023-04-11T18:41:26.842Z,10.20
2023-04-11T18:43:54.927Z,10.20
2023-04-11T18:46:23.470Z,10.10
2023-04-11T18:48:51.483Z,10.00
2023-04-11T18:51:20.315Z,10.00
2023-04-11T18:53:49.672Z,9.90
2023-04-11T18:56:17.533Z,9.80
2023-04-11T18:58:48.555Z,9.80
2023-04-11T19:01:17.775Z,9.70
2023-04-11T19:03:46.712Z,9.70
2023-04-11T19:06:14.917Z,9.70
2023-04-11T19:08:42.793Z,9.60
2023-04-11T19:11:12.207Z,9.60
2023-04-11T19:13:41.067Z,9.50
2023-04-11T19:16:09.169Z,9.60
2023-04-11T19:18:37.194Z,9.50
2023-04-11T19:21:05.515Z,9.70
2023-04-11T19:23:33.490Z,9.70
2023-04-11T19:26:02.380Z,9.60
2023-04-11T19:28:31.824Z,9.70
2023-04-11T19:30:59.729Z,9.60
2023-04-11T19:33:27.610Z,9.60
2023-04-11T19:35:55.720Z,9.70
2023-04-11T19:38:23.876Z,9.60
2023-04-11T19:40:52.011Z,9.60
2023-04-11T19:43:21.838Z,9.50
2023-04-11T19:45:51.972Z,9.30
2023-04-11T19:48:19.939Z,9.40
2023-04-11T19:50:47.846Z,9.30
2023-04-11T19:53:15.938Z,9.30
2023-04-11T19:55:45.385Z,9.40
2023-04-11T19:58:13.515Z,9.20
2023-04-11T20:00:41.827Z,9.20
2023-04-11T20:03:14.579Z,9.30
2023-04-11T20:05:43.121Z,9.30
2023-04-11T20:08:11.484Z,9.20
2023-04-11T20:10:40.146Z,9.00
2023-04-11T20:13:08.494Z,9.00
2023-04-11T20:15:36.713Z,8.90
2023-04-11T20:18:04.832Z,8.90
2023-04-11T20:20:36.731Z,8.90
2023-04-11T20:23:05.016Z,8.90
2023-04-11T20:25:33.237Z,8.90
2023-04-11T20:28:01.673Z,8.90
2023-04-11T20:30:30.003Z,8.80
2023-04-11T20:32:57.938Z,8.80
2023-04-11T20:35:26.060Z,8.80
2023-04-11T20:37:56.162Z,8.80
2023-04-11T20:40:25.077Z,8.80
2023-04-11T20:42:53.120Z,8.70
2023-04-11T20:45:22.054Z,8.50
2023-04-11T20:47:50.768Z,8.60
2023-04-11T20:50:19.409Z,8.60
2023-04-11T20:52:50.621Z,8.50
2023-04-11T20:55:20.990Z,8.40
2023-04-11T20:57:49.028Z,8.40
2023-04-11T21:00:18.567Z,8.30
2023-04-11T21:02:49.968Z,8.30
2023-04-11T21:05:20.586Z,8.40
2023-04-11T21:07:48.609Z,8.40
2023-04-11T21:10:16.708Z,8.40
2023-04-11T21:12:51.566Z,8.40
2023-04-11T21:15:20.455Z,8.40
2023-04-11T21:17:48.878Z,8.30
2023-04-11T21:20:20.523Z,8.40
2023-04-11T21:22:49.638Z,8.30
2023-04-11T21:25:17.943Z,8.20
2023-04-11T21:27:47.885Z,8.20
2023-04-11T21:30:16.135Z,8.30
2023-04-11T21:32:44.076Z,8.20
2023-04-11T21:35:13.016Z,8.20
2023-04-11T21:37:41.044Z,8.10
2023-04-11T21:40:10.239Z,8.10
2023-04-11T21:42:38.384Z,8.10
2023-04-11T21:45:09.973Z,8.00
2023-04-11T21:47:37.919Z,8.20
2023-04-11T21:50:06.724Z,8.10
2023-04-11T21:52:34.651Z,8.10
2023-04-11T21:55:02.788Z,8.20
2023-04-11T21:57:33.660Z,8.20
2023-04-11T22:00:01.789Z,8.00
2023-04-11T22:02:31.364Z,8.00
2023-04-11T22:05:06.282Z,8.00
2023-04-11T22:07:39.221Z,7.90
2023-04-11T22:10:10.522Z,7.90
2023-04-11T22:12:39.550Z,8.10
2023-04-11T22:15:09.711Z,8.00
2023-04-11T22:17:41.940Z,7.80
2023-04-11T22:20:11.170Z,7.90
2023-04-11T22:22:39.252Z,7.80
2023-04-11T22:25:10.040Z,7.80
2023-04-11T22:27:38.522Z,7.80
2023-04-11T22:30:08.844Z,7.70
2023-04-11T22:32:38.450Z,7.80
2023-04-11T22:35:08.352Z,7.90
2023-04-11T22:37:36.831Z,7.80
2023-04-11T22:40:06.774Z,7.80
2023-04-11T22:42:35.193Z,7.80
2023-04-11T22:45:03.093Z,7.70
2023-04-11T22:47:32.801Z,7.70
2023-04-11T22:50:03.770Z,7.80
2023-04-11T22:52:31.840Z,7.80
2023-04-11T22:54:59.765Z,7.80
2023-04-11T22:57:27.809Z,7.70
2023-04-11T22:59:55.841Z,7.80
2023-04-11T23:02:25.338Z,7.80
2023-04-11T23:04:53.530Z,7.80
2023-04-11T23:07:26.009Z,8.00
2023-04-11T23:09:53.888Z,8.00
2023-04-11T23:12:22.117Z,8.00
2023-04-11T23:14:50.358Z,8.10
2023-04-11T23:17:18.444Z,8.20
2023-04-11T23:19:47.215Z,8.40
2023-04-11T23:22:15.154Z,8.50
2023-04-11T23:24:44.534Z,8.40
2023-04-11T23:27:13.231Z,8.30
2023-04-11T23:29:41.761Z,8.30
2023-04-11T23:32:09.664Z,8.30
2023-04-11T23:34:37.604Z,8.30
2023-04-11T23:37:05.925Z,8.40
2023-04-11T23:39:34.033Z,8.20
2023-04-11T23:42:03.366Z,8.30
2023-04-11T23:44:31.275Z,8.30
2023-04-11T23:47:00.498Z,8.30
2023-04-11T23:49:28.662Z,8.30
2023-04-11T23:51:56.729Z,8.30
2023-04-11T23:54:29.947Z,8.30
2023-04-11T23:56:58.595Z,8.20
2023-04-11T23:59:27.926Z,8.30
